Historique des mesures à Cassis (13260), France
Quotidien Résumé Mars 15, 2017 Unités:  Métrique    US   Métrique/US
« Précédent (Jour)
Suivant (Jour) »
Quotidien Hebdomadaire Mensuel Annuel Période au choix
  Maximum: Minimum: Moyenne:
Température: TemperatureC °C 10.5 °C 13.5 °C
Point de rosée: DewpointC °C 5.2 °C 7.4 °C
Humidité: Humidity % 59 % 63 %
Vitesse du vent: 0 km/h 0 km/h 2.7 km/h
Rafales: 0 km/h - -
Vent:- - SE
Pression: PressurehPa hPa 1021.9 hPa -
Précipitations: 0.0 mm    
Historical Graphs
 
 
Mesures pour : Mars 15, 2017
Heure Temperature Point de rosée Pression Vent Vitesse du vent Rafales Humidité Pluie (par heure) Conditions
TemperatureC °C DewpointC °C PressurehPa hPa Calm     Humidity % HourlyPrecipMM mm SoftwareType W/m2
00:11 11.9 °C 5.9 °C 1023.2 hPa North 3.4 km/h 6.4 km/h 67 % 0.0 mm open2300-1.11 W/m2
01:10 12.1 °C 6.3 °C 1023.2 hPa Calm   2.3 km/h 68 % 0.0 mm open2300-1.11 W/m2
02:11 11.7 °C 5.8 °C 1023.2 hPa Calm     67 % 0.0 mm open2300-1.11 W/m2
03:10 11.1 °C 5.4 °C 1022.6 hPa Calm   5.1 km/h 68 % 0.0 mm open2300-1.11 W/m2
04:11 11.0 °C 5.3 °C 1022.6 hPa Calm   2.9 km/h 68 % 0.0 mm open2300-1.11 W/m2
05:10 10.9 °C 5.7 °C 1022.6 hPa NNW 3.4 km/h 3.4 km/h 70 % 0.0 mm open2300-1.11 W/m2
06:11 10.5 °C 5.3 °C 1022.6 hPa North 4.2 km/h 8 km/h 70 % 0.0 mm open2300-1.11 W/m2
07:10 10.5 °C 5.3 °C 1023.2 hPa NNE 2.3 km/h 9.3 km/h 70 % 0.0 mm open2300-1.11 W/m2
08:11 11.1 °C 5.9 °C 1023.6 hPa Calm     70 % 0.0 mm open2300-1.11 W/m2
09:10 13.1 °C 7.6 °C 1023.6 hPa Calm     69 % 0.0 mm open2300-1.11 W/m2
10:11 14.2 °C 8.3 °C 1024.3 hPa South 4.2 km/h 10.3 km/h 68 % 0.0 mm open2300-1.11 W/m2
11:10 16.5 °C 9.7 °C 1024.3 hPa SSE 5.6 km/h 5.6 km/h 64 % 0.0 mm open2300-1.11 W/m2
12:11 17.9 °C 10.7 °C 1023.9 hPa SSE 5.1 km/h 5.1 km/h 63 % 0.0 mm open2300-1.11 W/m2
13:10 18.4 °C 10.5 °C 1023.6 hPa SSE 5.1 km/h 6.9 km/h 60 % 0.0 mm open2300-1.11 W/m2
14:11 18.3 °C 10.1 °C 1023.2 hPa SSE 4.7 km/h 9.3 km/h 59 % 0.0 mm open2300-1.11 W/m2
15:10 18.0 °C 9.8 °C 1022.6 hPa ESE 7.6 km/h 7.6 km/h 59 % 0.0 mm open2300-1.11 W/m2
16:11 17.9 °C 10.5 °C 1022.2 hPa ESE 5.6 km/h 9.8 km/h 62 % 0.0 mm open2300-1.11 W/m2
17:10 17.0 °C 10.8 °C 1022.2 hPa SE 6.4 km/h 6.4 km/h 67 % 0.0 mm open2300-1.11 W/m2
18:11 16.3 °C 11.1 °C 1022.2 hPa SE 2.9 km/h 2.9 km/h 71 % 0.0 mm open2300-1.11 W/m2
19:10 14.9 °C 9.9 °C 1021.9 hPa Calm     72 % 0.0 mm open2300-1.11 W/m2
20:11 14.1 °C 7.4 °C 1021.9 hPa SSW 2.9 km/h 2.9 km/h 64 % 0.0 mm open2300-1.11 W/m2
21:10 13.4 °C 6.0 °C 1021.9 hPa NNW 2.9 km/h 2.9 km/h 61 % 0.0 mm open2300-1.11 W/m2
22:11 13.4 °C 5.6 °C 1021.9 hPa North 3.4 km/h 4.2 km/h 59 % 0.0 mm open2300-1.11 W/m2
23:10 13.1 °C 5.2 °C 1021.9 hPa Calm   3.4 km/h 59 % 0.0 mm open2300-1.11 W/m2
Observations météo à CASSIS
WU-History script by Weather Underground - 1 mb